createdAt,value
2023-06-11T00:02:09.918Z,97.60
2023-06-11T00:04:46.735Z,97.60
2023-06-11T00:07:21.326Z,97.50
2023-06-11T00:09:54.204Z,98.60
2023-06-11T00:12:26.340Z,98.60
2023-06-11T00:14:58.622Z,99.00
2023-06-11T00:17:34.707Z,99.50
2023-06-11T00:20:10.933Z,99.60
2023-06-11T00:22:43.352Z,99.30
2023-06-11T00:25:16.245Z,99.90
2023-06-11T00:27:48.413Z,99.50
2023-06-11T00:30:20.646Z,99.40
2023-06-11T00:32:52.867Z,99.20
2023-06-11T00:35:25.118Z,99.80
2023-06-11T00:37:58.808Z,99.40
2023-06-11T00:40:32.541Z,99.20
2023-06-11T00:43:05.645Z,99.40
2023-06-11T00:45:39.629Z,99.10
2023-06-11T00:48:13.307Z,99.70
2023-06-11T00:50:48.818Z,99.10
2023-06-11T00:53:23.236Z,99.40
2023-06-11T00:55:55.502Z,99.70
2023-06-11T00:58:28.989Z,99.90
2023-06-11T01:01:03.508Z,99.90
2023-06-11T01:03:37.917Z,99.90
2023-06-11T01:06:20.437Z,99.90
2023-06-11T01:08:59.109Z,99.90
2023-06-11T01:11:36.728Z,99.90
2023-06-11T01:14:14.423Z,99.90
2023-06-11T01:16:54.013Z,99.90
2023-06-11T01:19:32.377Z,99.90
2023-06-11T01:22:52.818Z,99.90
2023-06-11T01:26:16.772Z,99.90
2023-06-11T01:29:07.937Z,99.90
2023-06-11T01:31:41.881Z,99.90
2023-06-11T01:34:14.613Z,99.90
2023-06-11T01:36:47.197Z,99.90
2023-06-11T01:39:20.919Z,99.90
2023-06-11T01:41:53.647Z,99.90
2023-06-11T01:44:27.772Z,99.90
2023-06-11T01:47:00.814Z,99.90
2023-06-11T01:49:33.041Z,99.90
2023-06-11T01:52:06.552Z,99.90
2023-06-11T01:54:39.107Z,99.90
2023-06-11T01:57:11.459Z,99.90
2023-06-11T01:59:44.204Z,99.90
2023-06-11T02:02:16.632Z,99.90
2023-06-11T02:04:48.991Z,99.90
2023-06-11T02:07:22.148Z,99.90
2023-06-11T02:09:55.699Z,99.90
2023-06-11T02:12:27.928Z,99.90
2023-06-11T02:15:00.157Z,99.90
2023-06-11T02:17:32.541Z,99.90
2023-06-11T02:20:09.614Z,99.90
2023-06-11T02:22:42.341Z,99.90
2023-06-11T02:25:15.096Z,99.90
2023-06-11T02:27:49.922Z,99.90
2023-06-11T02:30:22.149Z,99.90
2023-06-11T02:32:54.292Z,99.90
2023-06-11T02:35:26.805Z,99.90
2023-06-11T02:37:58.943Z,99.90
2023-06-11T02:40:31.244Z,99.90
2023-06-11T02:43:03.386Z,99.90
2023-06-11T02:45:37.063Z,99.90
2023-06-11T02:48:09.437Z,99.90
2023-06-11T02:50:41.652Z,99.90
2023-06-11T02:53:13.767Z,99.90
2023-06-11T02:55:45.885Z,99.90
2023-06-11T02:58:18.286Z,99.90
2023-06-11T03:00:50.413Z,99.90
2023-06-11T03:03:22.611Z,99.90
2023-06-11T03:05:54.701Z,99.90
2023-06-11T03:08:26.841Z,99.90
2023-06-11T03:10:59.084Z,99.90
2023-06-11T03:13:31.285Z,99.90
2023-06-11T03:16:03.531Z,99.90
2023-06-11T03:18:35.739Z,99.90
2023-06-11T03:21:08.102Z,99.90
2023-06-11T03:23:41.057Z,99.90
2023-06-11T03:26:13.204Z,99.90
2023-06-11T03:28:45.365Z,99.90
2023-06-11T03:31:17.691Z,99.90
2023-06-11T03:33:49.957Z,99.90
2023-06-11T03:36:22.156Z,99.90
2023-06-11T03:38:54.373Z,99.90
2023-06-11T03:41:27.205Z,99.90
2023-06-11T03:43:59.325Z,99.90
2023-06-11T03:46:31.446Z,99.90
2023-06-11T03:49:03.516Z,99.90
2023-06-11T03:51:35.802Z,99.90
2023-06-11T03:54:08.118Z,99.90
2023-06-11T03:56:40.438Z,99.90
2023-06-11T03:59:12.570Z,99.90
2023-06-11T04:01:44.785Z,99.90
2023-06-11T04:04:17.206Z,99.90
2023-06-11T04:06:49.360Z,99.90
2023-06-11T04:09:21.862Z,99.90
2023-06-11T04:11:55.165Z,99.90
2023-06-11T04:14:27.248Z,99.90
2023-06-11T04:16:59.410Z,99.90
2023-06-11T04:19:31.617Z,99.90
2023-06-11T04:22:03.939Z,99.90
2023-06-11T04:24:36.461Z,99.90
2023-06-11T04:27:09.163Z,99.90
2023-06-11T04:29:45.719Z,99.90
2023-06-11T04:32:22.368Z,99.90
2023-06-11T04:34:58.866Z,99.90
2023-06-11T04:37:40.882Z,99.90
2023-06-11T04:40:12.985Z,99.90
2023-06-11T04:42:45.488Z,99.90
2023-06-11T04:45:20.371Z,99.90
2023-06-11T04:47:52.724Z,99.90
2023-06-11T04:50:26.154Z,99.90
2023-06-11T04:52:58.503Z,99.90
2023-06-11T04:55:39.737Z,99.90
2023-06-11T04:58:13.380Z,99.90
2023-06-11T05:00:47.516Z,99.90
2023-06-11T05:03:20.560Z,99.90
2023-06-11T05:05:54.950Z,99.90
2023-06-11T05:08:29.454Z,99.90
2023-06-11T05:11:01.959Z,99.90
2023-06-11T05:13:34.025Z,99.90
2023-06-11T05:16:07.070Z,99.90
2023-06-11T05:18:40.226Z,99.90
2023-06-11T05:21:13.562Z,99.90
2023-06-11T05:23:46.505Z,99.90
2023-06-11T05:26:20.227Z,99.90
2023-06-11T05:29:08.031Z,99.90
2023-06-11T05:31:40.671Z,99.90
2023-06-11T05:34:13.096Z,99.90
2023-06-11T05:36:46.765Z,99.90
2023-06-11T05:39:21.505Z,99.90
2023-06-11T05:41:53.483Z,99.90
2023-06-11T05:44:25.554Z,99.90
2023-06-11T05:46:57.895Z,99.90
2023-06-11T05:49:30.413Z,99.90
2023-06-11T05:52:02.840Z,99.90
2023-06-11T05:54:35.363Z,99.90
2023-06-11T05:57:17.977Z,99.90
2023-06-11T05:59:53.211Z,99.90
2023-06-11T06:02:26.862Z,99.90
2023-06-11T06:05:00.080Z,99.90
2023-06-11T06:07:32.315Z,99.90
2023-06-11T06:10:04.876Z,99.90
2023-06-11T06:12:37.525Z,99.90
2023-06-11T06:15:10.401Z,99.90
2023-06-11T06:17:42.867Z,99.90
2023-06-11T06:20:15.089Z,99.90
2023-06-11T06:22:47.487Z,99.90
2023-06-11T06:25:19.806Z,99.90
2023-06-11T06:27:52.167Z,99.90
2023-06-11T06:30:24.365Z,99.90
2023-06-11T06:32:58.643Z,99.90
2023-06-11T06:35:33.437Z,99.90
2023-06-11T06:38:06.629Z,99.90
2023-06-11T06:40:38.752Z,99.90
2023-06-11T06:43:10.837Z,98.80
2023-06-11T06:45:43.084Z,97.90
2023-06-11T06:48:15.245Z,97.70
2023-06-11T06:50:47.632Z,96.70
2023-06-11T06:53:19.926Z,95.70
2023-06-11T06:55:53.553Z,94.70
2023-06-11T06:58:26.319Z,94.10
2023-06-11T07:00:59.442Z,93.90
2023-06-11T07:03:31.939Z,93.40
2023-06-11T07:06:05.995Z,92.50
2023-06-11T07:08:39.663Z,93.70
2023-06-11T07:11:15.480Z,93.70
2023-06-11T07:13:50.315Z,93.20
2023-06-11T07:16:22.699Z,92.30
2023-06-11T07:18:54.970Z,90.90
2023-06-11T07:21:27.085Z,91.00
2023-06-11T07:24:07.102Z,91.80
2023-06-11T07:26:44.041Z,91.40
2023-06-11T07:29:18.268Z,91.50
2023-06-11T07:31:53.417Z,91.30
2023-06-11T07:34:26.911Z,90.60
2023-06-11T07:36:59.080Z,90.00
2023-06-11T07:39:33.695Z,91.00
2023-06-11T07:42:08.789Z,90.10
2023-06-11T07:44:44.881Z,88.70
2023-06-11T07:47:17.368Z,90.00
2023-06-11T07:49:49.730Z,89.40
2023-06-11T07:52:22.225Z,88.40
2023-06-11T07:54:54.596Z,86.90
2023-06-11T07:57:26.743Z,84.50
2023-06-11T07:59:59.012Z,84.70
2023-06-11T08:02:32.411Z,85.70
2023-06-11T08:05:05.103Z,84.00
2023-06-11T08:07:37.656Z,84.60
2023-06-11T08:10:14.436Z,83.10
2023-06-11T08:12:50.640Z,84.00
2023-06-11T08:15:25.402Z,82.50
2023-06-11T08:17:58.130Z,83.90
2023-06-11T08:20:31.288Z,82.60
2023-06-11T08:23:04.505Z,87.60
2023-06-11T08:25:45.240Z,84.80
2023-06-11T08:28:21.325Z,83.50
2023-06-11T08:30:59.151Z,84.10
2023-06-11T08:33:42.228Z,85.20
2023-06-11T08:36:16.066Z,84.40
2023-06-11T08:38:52.403Z,85.80
2023-06-11T08:41:33.694Z,83.00
2023-06-11T08:44:11.927Z,83.10
2023-06-11T08:46:47.094Z,84.80
2023-06-11T08:49:25.289Z,83.30
2023-06-11T08:52:04.751Z,82.30
2023-06-11T08:54:38.761Z,82.90
2023-06-11T08:57:11.612Z,82.10
2023-06-11T08:59:43.758Z,82.70
2023-06-11T09:02:16.054Z,83.40
2023-06-11T09:04:49.311Z,82.60
2023-06-11T09:07:26.931Z,81.50
2023-06-11T09:10:05.716Z,84.70
2023-06-11T09:12:39.165Z,82.50
2023-06-11T09:15:13.999Z,80.50
2023-06-11T09:17:53.827Z,80.80
2023-06-11T09:20:32.511Z,80.70
2023-06-11T09:23:09.724Z,78.70
2023-06-11T09:25:46.109Z,79.70
2023-06-11T09:28:24.368Z,80.40
2023-06-11T09:31:09.983Z,84.30
2023-06-11T09:33:47.231Z,80.50
2023-06-11T09:36:24.073Z,77.00
2023-06-11T09:38:58.167Z,78.00
2023-06-11T09:41:55.864Z,77.10
2023-06-11T09:44:43.679Z,76.20
2023-06-11T09:47:22.993Z,76.40
2023-06-11T09:49:59.955Z,77.50
2023-06-11T09:52:39.867Z,74.30
2023-06-11T09:55:13.736Z,72.50
2023-06-11T09:57:50.959Z,72.40
2023-06-11T10:00:26.575Z,75.30
2023-06-11T10:02:59.155Z,71.20
2023-06-11T10:05:33.558Z,71.20
2023-06-11T10:08:13.686Z,71.10
2023-06-11T10:10:57.779Z,68.90
2023-06-11T10:13:35.517Z,71.60
2023-06-11T10:16:10.339Z,70.90
2023-06-11T10:18:42.612Z,74.20
2023-06-11T10:21:14.889Z,72.60
2023-06-11T10:23:52.387Z,72.60
2023-06-11T10:26:34.582Z,69.20
2023-06-11T10:29:12.254Z,70.10
2023-06-11T10:31:46.361Z,67.30
2023-06-11T10:34:29.819Z,70.70
2023-06-11T10:37:13.159Z,73.60
2023-06-11T10:39:52.083Z,69.20
2023-06-11T10:42:29.099Z,70.80
2023-06-11T10:45:21.225Z,68.90
2023-06-11T10:48:04.845Z,68.80
2023-06-11T10:50:37.577Z,69.30
2023-06-11T10:53:13.294Z,71.80
2023-06-11T10:55:48.540Z,67.40
2023-06-11T10:58:24.797Z,66.00
2023-06-11T11:01:00.453Z,66.50
2023-06-11T11:03:34.401Z,70.50
2023-06-11T11:06:07.053Z,70.70
2023-06-11T11:08:41.019Z,69.40
2023-06-11T11:11:13.311Z,72.00
2023-06-11T11:13:46.909Z,70.80
2023-06-11T11:16:21.410Z,68.30
2023-06-11T11:18:54.407Z,70.20
2023-06-11T11:21:30.913Z,69.10
2023-06-11T11:24:05.128Z,66.80
2023-06-11T11:26:48.395Z,67.60
2023-06-11T11:29:20.720Z,66.80
2023-06-11T11:31:53.441Z,67.10
2023-06-11T11:34:30.956Z,71.80
2023-06-11T11:37:09.062Z,74.70
2023-06-11T11:39:42.647Z,74.90
2023-06-11T11:42:19.130Z,72.10
2023-06-11T11:44:57.252Z,69.80
2023-06-11T11:47:31.735Z,67.80
2023-06-11T11:50:09.713Z,66.30
2023-06-11T11:53:18.029Z,71.40
2023-06-11T11:56:04.218Z,68.50
2023-06-11T11:58:45.660Z,67.80
2023-06-11T12:01:42.865Z,65.20
2023-06-11T12:04:46.056Z,68.00
2023-06-11T12:07:21.472Z,66.30
2023-06-11T12:09:53.757Z,67.10
2023-06-11T12:12:25.993Z,68.90
2023-06-11T12:14:58.088Z,63.00
2023-06-11T12:17:31.047Z,64.10
2023-06-11T12:20:04.613Z,63.80
2023-06-11T12:22:37.839Z,63.10
2023-06-11T12:25:10.593Z,62.90
2023-06-11T12:27:44.939Z,63.40
2023-06-11T12:30:17.255Z,65.60
2023-06-11T12:32:52.914Z,63.60
2023-06-11T12:35:29.057Z,62.80
2023-06-11T12:38:03.666Z,62.70
2023-06-11T12:40:37.968Z,63.40
2023-06-11T12:43:14.963Z,59.80
2023-06-11T12:45:48.694Z,62.00
2023-06-11T12:48:21.531Z,61.70
2023-06-11T12:50:54.184Z,62.40
2023-06-11T12:53:26.734Z,58.90
2023-06-11T12:55:59.019Z,60.80
2023-06-11T12:58:37.691Z,60.20
2023-06-11T13:01:12.088Z,59.70
2023-06-11T13:03:46.425Z,58.60
2023-06-11T13:06:22.661Z,61.40
2023-06-11T13:09:07.338Z,64.10
2023-06-11T13:11:51.474Z,63.00
2023-06-11T13:14:24.168Z,61.00
2023-06-11T13:16:56.852Z,60.50
2023-06-11T13:19:29.217Z,62.40
2023-06-11T13:22:01.633Z,58.00
2023-06-11T13:24:39.566Z,59.50
2023-06-11T13:27:12.244Z,58.80
2023-06-11T13:29:44.671Z,59.00
2023-06-11T13:32:17.937Z,58.30
2023-06-11T13:34:50.832Z,60.60
2023-06-11T13:37:23.531Z,58.40
2023-06-11T13:39:56.351Z,57.20
2023-06-11T13:42:28.987Z,58.60
2023-06-11T13:45:04.686Z,56.80
2023-06-11T13:47:37.605Z,56.80
2023-06-11T13:50:10.480Z,59.80
2023-06-11T13:52:42.951Z,58.20
2023-06-11T13:55:15.224Z,59.90
2023-06-11T13:57:47.740Z,59.00
2023-06-11T14:00:20.048Z,55.60
2023-06-11T14:02:52.373Z,57.20
2023-06-11T14:05:26.329Z,60.60
2023-06-11T14:07:59.876Z,56.40
2023-06-11T14:10:32.234Z,59.60
2023-06-11T14:13:04.593Z,56.60
2023-06-11T14:15:36.959Z,56.60
2023-06-11T14:18:09.470Z,53.60
2023-06-11T14:20:41.781Z,57.90
2023-06-11T14:23:14.044Z,56.20
2023-06-11T14:25:46.296Z,55.60
2023-06-11T14:28:18.849Z,56.60
2023-06-11T14:30:53.804Z,55.30
2023-06-11T14:33:26.642Z,57.00
2023-06-11T14:35:59.085Z,54.90
2023-06-11T14:38:35.468Z,55.30
2023-06-11T14:41:07.762Z,54.80
2023-06-11T14:43:39.877Z,55.20
2023-06-11T14:46:12.115Z,53.30
2023-06-11T14:48:44.252Z,55.70
2023-06-11T14:51:17.300Z,56.30
2023-06-11T14:53:49.668Z,56.70
2023-06-11T14:56:22.439Z,56.60
2023-06-11T14:58:54.647Z,57.30
2023-06-11T15:01:26.782Z,56.60
2023-06-11T15:03:59.026Z,56.80
2023-06-11T15:06:31.786Z,56.50
2023-06-11T15:09:06.016Z,56.80
2023-06-11T15:11:39.063Z,57.60
2023-06-11T15:14:11.253Z,55.40
2023-06-11T15:16:45.185Z,55.30
2023-06-11T15:19:17.422Z,56.50
2023-06-11T15:21:49.677Z,57.20
2023-06-11T15:24:22.888Z,57.40
2023-06-11T15:26:55.812Z,55.60
2023-06-11T15:29:27.985Z,53.90
2023-06-11T15:32:01.853Z,53.80
2023-06-11T15:34:34.757Z,55.30
2023-06-11T15:37:07.089Z,57.00
2023-06-11T15:39:39.520Z,56.50
2023-06-11T15:42:11.823Z,53.90
2023-06-11T15:44:44.418Z,53.60
2023-06-11T15:47:17.448Z,54.30
2023-06-11T15:49:49.976Z,55.00
2023-06-11T15:52:23.404Z,54.20
2023-06-11T15:54:55.490Z,55.10
2023-06-11T15:57:27.603Z,55.30
2023-06-11T16:00:00.116Z,55.10
2023-06-11T16:02:32.501Z,55.70
2023-06-11T16:05:04.926Z,56.50
2023-06-11T16:07:37.378Z,56.50
2023-06-11T16:10:13.183Z,56.70
2023-06-11T16:12:49.541Z,58.00
2023-06-11T16:15:21.848Z,57.30
2023-06-11T16:17:54.091Z,55.80
2023-06-11T16:20:27.697Z,56.20
2023-06-11T16:23:03.723Z,56.70
2023-06-11T16:25:38.668Z,55.70
2023-06-11T16:28:11.037Z,55.10
2023-06-11T16:30:44.223Z,56.30
2023-06-11T16:33:16.613Z,56.10
2023-06-11T16:35:48.915Z,56.80
2023-06-11T16:38:21.201Z,55.90
2023-06-11T16:40:53.502Z,56.10
2023-06-11T16:43:25.664Z,57.50
2023-06-11T16:45:57.797Z,55.10
2023-06-11T16:48:32.071Z,56.10
2023-06-11T16:51:04.330Z,55.80
2023-06-11T16:53:36.428Z,57.50
2023-06-11T16:56:08.553Z,57.50
2023-06-11T16:58:40.770Z,57.20
2023-06-11T17:01:13.276Z,58.10
2023-06-11T17:03:48.010Z,58.80
2023-06-11T17:06:21.351Z,57.40
2023-06-11T17:08:56.066Z,57.80
2023-06-11T17:11:28.218Z,57.60
2023-06-11T17:14:00.605Z,56.00
2023-06-11T17:16:32.895Z,56.50
2023-06-11T17:19:07.211Z,57.50
2023-06-11T17:21:39.811Z,57.70
2023-06-11T17:24:14.242Z,57.00
2023-06-11T17:26:46.681Z,57.10
2023-06-11T17:29:19.022Z,56.10
2023-06-11T17:31:52.399Z,58.00
2023-06-11T17:34:24.891Z,58.30
2023-06-11T17:36:57.647Z,57.90
2023-06-11T17:39:29.721Z,58.40
2023-06-11T17:42:02.582Z,59.60
2023-06-11T17:44:35.060Z,58.90
2023-06-11T17:47:07.399Z,59.00
2023-06-11T17:49:40.132Z,58.80
2023-06-11T17:52:14.318Z,59.40
2023-06-11T17:54:47.638Z,59.60
2023-06-11T17:57:21.818Z,58.60
2023-06-11T17:59:54.870Z,58.70
2023-06-11T18:02:27.726Z,59.00
2023-06-11T18:05:00.319Z,60.20
2023-06-11T18:07:33.182Z,60.10
2023-06-11T18:10:07.894Z,59.30
2023-06-11T18:12:42.866Z,59.80
2023-06-11T18:17:51.547Z,60.20
2023-06-11T18:20:24.586Z,61.20
2023-06-11T18:22:57.979Z,60.80
2023-06-11T18:25:31.468Z,60.90
2023-06-11T18:28:06.733Z,61.60
2023-06-11T18:30:39.345Z,61.70
2023-06-11T18:33:11.897Z,62.40
2023-06-11T18:35:44.262Z,62.30
2023-06-11T18:38:17.257Z,62.10
2023-06-11T18:40:50.249Z,62.20
2023-06-11T18:43:25.011Z,62.00
2023-06-11T18:45:57.576Z,62.60
2023-06-11T18:48:30.894Z,62.50
2023-06-11T18:51:03.778Z,62.10
2023-06-11T18:53:36.825Z,62.60
2023-06-11T18:56:09.832Z,62.80
2023-06-11T18:58:42.957Z,62.80
2023-06-11T19:01:16.110Z,62.90
2023-06-11T19:03:49.363Z,63.60
2023-06-11T19:06:22.411Z,63.30
2023-06-11T19:08:55.473Z,63.40
2023-06-11T19:11:28.454Z,63.40
2023-06-11T19:14:01.988Z,63.70
2023-06-11T19:16:35.260Z,64.20
2023-06-11T19:19:08.508Z,64.20
2023-06-11T19:21:40.888Z,65.20
2023-06-11T19:24:17.334Z,65.80
2023-06-11T19:26:50.678Z,66.10
2023-06-11T19:29:24.530Z,66.80
2023-06-11T19:31:59.781Z,67.10
2023-06-11T19:34:32.737Z,67.50
2023-06-11T19:37:05.760Z,68.50
2023-06-11T19:39:38.713Z,69.00
2023-06-11T19:42:11.398Z,68.90
2023-06-11T19:44:44.040Z,69.40
2023-06-11T19:47:16.985Z,70.30
2023-06-11T19:49:51.472Z,69.80
2023-06-11T19:52:24.580Z,70.70
2023-06-11T19:54:59.147Z,70.80
2023-06-11T19:57:32.545Z,70.80
2023-06-11T20:00:06.071Z,70.70
2023-06-11T20:02:39.259Z,70.80
2023-06-11T20:05:12.523Z,71.20
2023-06-11T20:07:45.762Z,71.20
2023-06-11T20:10:18.608Z,72.10
2023-06-11T20:12:51.534Z,71.60
2023-06-11T20:15:24.304Z,72.60
2023-06-11T20:17:57.923Z,73.00
2023-06-11T20:20:33.533Z,72.60
2023-06-11T20:23:07.047Z,72.70
2023-06-11T20:25:39.869Z,72.90
2023-06-11T20:28:12.959Z,73.40
2023-06-11T20:30:45.946Z,75.10
2023-06-11T20:33:19.216Z,75.10
2023-06-11T20:35:52.325Z,74.00
2023-06-11T20:38:25.300Z,74.50
2023-06-11T20:40:59.003Z,74.60
2023-06-11T20:43:31.857Z,75.50
2023-06-11T20:46:15.315Z,76.00
2023-06-11T20:48:57.962Z,76.20
2023-06-11T20:51:31.454Z,75.90
2023-06-11T20:54:04.312Z,76.30
2023-06-11T20:56:37.539Z,76.10
2023-06-11T20:59:11.238Z,75.70
2023-06-11T21:01:43.916Z,77.30
2023-06-11T21:04:17.050Z,76.50
2023-06-11T21:06:50.006Z,77.50
2023-06-11T21:09:22.683Z,78.20
2023-06-11T21:11:58.194Z,77.30
2023-06-11T21:14:32.982Z,77.70
2023-06-11T21:17:06.140Z,78.40
2023-06-11T21:19:39.532Z,77.90
2023-06-11T21:22:12.368Z,79.40
2023-06-11T21:24:45.135Z,78.60
2023-06-11T21:27:17.942Z,78.20
2023-06-11T21:29:50.356Z,78.50
2023-06-11T21:32:23.489Z,78.60
2023-06-11T21:34:56.236Z,79.60
2023-06-11T21:37:28.985Z,79.20
2023-06-11T21:40:01.731Z,81.20
2023-06-11T21:42:35.231Z,81.70
2023-06-11T21:45:08.542Z,82.00
2023-06-11T21:47:42.260Z,82.30
2023-06-11T21:50:15.044Z,83.10
2023-06-11T21:52:47.944Z,81.20
2023-06-11T21:55:21.826Z,81.00
2023-06-11T21:57:54.332Z,80.60
2023-06-11T22:00:28.151Z,81.60
2023-06-11T22:03:01.645Z,80.90
2023-06-11T22:05:34.041Z,82.30
2023-06-11T22:08:06.964Z,82.50
2023-06-11T22:10:39.670Z,82.40
2023-06-11T22:13:12.763Z,82.40
2023-06-11T22:15:46.158Z,83.00
2023-06-11T22:18:18.721Z,81.30
2023-06-11T22:20:54.116Z,82.00
2023-06-11T22:23:45.138Z,81.50
2023-06-11T22:26:22.739Z,82.00
2023-06-11T22:28:55.859Z,83.50
2023-06-11T22:31:28.580Z,82.30
2023-06-11T22:34:01.537Z,83.60
2023-06-11T22:36:34.238Z,84.50
2023-06-11T22:39:06.903Z,82.70
2023-06-11T22:41:40.968Z,85.10
2023-06-11T22:44:14.426Z,84.10
2023-06-11T22:46:47.356Z,84.20
2023-06-11T22:49:19.898Z,85.50
2023-06-11T22:51:53.396Z,84.40
2023-06-11T22:54:26.928Z,84.30
2023-06-11T22:57:00.104Z,85.70
2023-06-11T22:59:33.272Z,85.10
2023-06-11T23:02:06.118Z,84.40
2023-06-11T23:04:40.463Z,85.30
2023-06-11T23:07:12.940Z,84.80
2023-06-11T23:09:49.387Z,84.60
2023-06-11T23:12:22.087Z,87.30
2023-06-11T23:14:54.209Z,86.80
2023-06-11T23:17:28.833Z,87.60
2023-06-11T23:20:03.037Z,86.00
2023-06-11T23:22:37.849Z,86.90
2023-06-11T23:25:12.441Z,86.60
2023-06-11T23:27:46.248Z,86.30
2023-06-11T23:30:18.926Z,88.60
2023-06-11T23:32:52.252Z,88.00
2023-06-11T23:35:25.213Z,87.80
2023-06-11T23:37:57.677Z,88.20
2023-06-11T23:40:30.349Z,87.40
2023-06-11T23:43:02.485Z,88.10
2023-06-11T23:45:34.662Z,88.30
2023-06-11T23:48:07.014Z,87.50
2023-06-11T23:50:42.828Z,88.00
2023-06-11T23:53:15.737Z,87.70
2023-06-11T23:55:48.148Z,86.80
2023-06-11T23:58:22.028Z,87.30
